Nearby METAR Reports

 

EDLW - Dortmund/Wickede, Germany
Distance from station: OSO 17km
Aktuell: 28/09/2020 23:50
Leicht bewölkt
Leicht bewölkt
 Wind aus SSO
Wind: SSO 7 km/h
Temperatur: 10°C
Wind Chill: 9°C
Taupunkt: 8°C
Luftfeuchte: 88%
Luftdruck: 1013 hPa
Clouds: Leicht bewölkt
Visibility: 10 km
Cloud details: Leicht bewölkt 1737 m
2020/09/28 21:50 EDLW 282150Z AUTO 15004KT 9999 // FEW057/// 10/08 Q1013
EDDL - Duesseldorf, Germany
Distance from station: SW 52km
Aktuell: 28/09/2020 23:50
Stark bewölkt
Stark bewölkt
 Wind aus SSO
Wind: SSO 15 km/h
Temperatur: 12°C
Taupunkt: 9°C
Luftfeuchte: 82%
Luftdruck: 1012 hPa
Clouds: Stark bewölkt
Visibility: 10 km
Cloud details: Stark bewölkt 762 m
2020/09/28 21:50 EDDL 282150Z 15008KT 9999 BKN025 12/09 Q1012 NOSIG
 
EDDG - Muenster/Osnabru, Germany
Distance from station: NNO 67km
Aktuell: 28/09/2020 23:50
Klar
Klar
 Wind aus varies
Wind: varies 2 km/h
Temperatur: 10°C
Taupunkt: 9°C
Luftfeuchte: 94%
Luftdruck: 1013 hPa
Zusammenfassung: Klar
Visibility: greater than 10 km
2020/09/28 21:50 EDDG 282150Z VRB01KT CAVOK 10/09 Q1013 NOSIG
EDLN - Monchengladbach, Germany
Distance from station: WSW 72km
Aktuell: 28/09/2020 23:50
geschlossene Wolkendecke
geschlossene Wolkendecke
 Wind aus SSO
Wind: SSO 7 km/h
Temperatur: 12°C
Taupunkt: 9°C
Luftfeuchte: 82%
Luftdruck: 1012 hPa
Clouds: geschlossene Wolkendecke
Visibility: 10 km
Cloud details: geschlossene Wolkendecke 579 m
2020/09/28 21:50 EDLN 282150Z AUTO 15004KT 120V180 9999 // OVC019/// 12/09 Q1012
 
EDDK - Koeln/Bonn, Germany
Distance from station: SSW 79km
Aktuell: 28/09/2020 23:50
Klar
Klar
 Wind aus SO
Wind: SO 9 km/h
Temperatur: 10°C
Wind Chill: 9°C
Taupunkt: 8°C
Luftfeuchte: 88%
Luftdruck: 1013 hPa
Zusammenfassung: Klar
Visibility: greater than 10 km
2020/09/28 21:50 EDDK 282150Z 13005KT CAVOK 10/08 Q1013 NOSIG
EDLP - Paderborn/Lippst, Germany
Distance from station: O 85km
Aktuell: 28/09/2020 21:50
NOT Current
Klar
Klar
 Wind aus SO
Wind: SO 6 km/h
Temperatur: 11°C
Taupunkt: 7°C
Luftfeuchte: 77%
Luftdruck: 1012 hPa
Zusammenfassung: Klar
Visibility: greater than 10 km
2020/09/28 19:50 EDLP 281950Z 13003KT CAVOK 11/07 Q1012
 
EDLV - Niederrhein, Germany
Distance from station: W 86km
Aktuell: 28/09/2020 23:50
Stark bewölkt
Stark bewölkt
 Wind aus varies
Wind: varies 4 km/h
Temperatur: 12°C
Taupunkt: 10°C
Luftfeuchte: 88%
Luftdruck: 1012 hPa
Clouds: Stark bewölkt
Visibility: 10 km
Cloud details: Stark bewölkt 762 m
2020/09/28 21:50 EDLV 282150Z VRB02KT 9999 BKN025 12/10 Q1012
ETNN - Noervenich (gaf), Germany
Distance from station: SSW 97km
Aktuell: 28/09/2020 23:20
Stark bewölkt
Stark bewölkt
 Wind aus varies
Wind: varies 6 km/h
Temperatur: 11°C
Taupunkt: 9°C
Luftfeuchte: 88%
Luftdruck: 1012 hPa
Clouds: Stark bewölkt
Visibility: 10 km
Cloud details: Teilweise bewölkt 671 m
Stark bewölkt 1829 m
2020/09/28 21:20 ETNN 282120Z VRB03KT 9999 SCT022 BKN060 11/09 Q1012 BLU